Time;durP1;ratioP1;P1;durP2;ratioP2;P2;SDS_P1;SDS_P2;PMS_P1;PMS_P2;Temp;Humidity;BMP_temperature;BMP_pressure;BME280_temperature;BME280_humidity;BME280_pressure;Samples;Min_cycle;Max_cycle;Signal;HPM_P1;HPM_P2
2022/02/25 00:01:58;;;;;;;1.90;0.80;;;17.30;52.60;;;;;;5050903;28;20649;-67
2022/02/25 00:04:24;;;;;;;1.38;1.00;;;17.30;52.70;;;;;;5051845;28;20171;-68
2022/02/25 00:06:49;;;;;;;0.80;0.80;;;17.30;52.70;;;;;;5052034;28;20186;-66
2022/02/25 00:09:15;;;;;;;1.95;0.95;;;17.30;52.60;;;;;;5050829;28;20205;-65
2022/02/25 00:11:40;;;;;;;1.15;0.98;;;17.30;52.60;;;;;;5051988;28;20266;-65
2022/02/25 00:14:06;;;;;;;4.90;1.10;;;17.20;52.60;;;;;;5051448;28;20171;-65
2022/02/25 00:16:31;;;;;;;0.98;0.88;;;17.20;52.50;;;;;;5051077;28;20249;-66
2022/02/25 00:18:58;;;;;;;1.40;0.90;;;17.20;52.50;;;;;;5051314;28;20201;-66
2022/02/25 00:21:23;;;;;;;1.30;0.90;;;17.20;52.50;;;;;;5051967;28;20175;-67
2022/02/25 00:23:49;;;;;;;0.90;0.68;;;17.20;52.50;;;;;;5051128;28;20178;-64
2022/02/25 00:26:14;;;;;;;1.02;0.63;;;17.20;52.50;;;;;;5051446;28;20179;-64
2022/02/25 00:28:40;;;;;;;1.55;0.70;;;17.10;52.50;;;;;;5051726;28;20163;-63
2022/02/25 00:31:05;;;;;;;1.67;0.80;;;17.10;52.50;;;;;;5050708;28;20191;-64
2022/02/25 00:33:31;;;;;;;1.70;1.17;;;17.10;52.50;;;;;;5051534;28;20638;-66
2022/02/25 00:35:56;;;;;;;1.33;1.00;;;17.10;52.50;;;;;;5051195;28;20269;-66
2022/02/25 00:38:22;;;;;;;1.13;0.75;;;17.10;52.40;;;;;;5051033;28;20236;-67
2022/02/25 00:40:47;;;;;;;1.85;0.90;;;17.10;52.50;;;;;;5051679;28;20294;-66
2022/02/25 00:43:13;;;;;;;1.27;0.70;;;17.10;52.50;;;;;;5051312;28;20229;-66
2022/02/25 00:45:38;;;;;;;1.73;0.82;;;17.10;52.50;;;;;;5050769;28;20186;-66
2022/02/25 00:48:04;;;;;;;1.83;0.80;;;17.10;52.50;;;;;;5051104;28;20686;-65
2022/02/25 00:50:30;;;;;;;1.35;0.80;;;17.10;52.50;;;;;;5051688;28;20249;-65
2022/02/25 00:52:55;;;;;;;1.52;1.05;;;17.00;52.50;;;;;;5051153;28;20187;-64
2022/02/25 00:55:21;;;;;;;1.92;0.90;;;17.00;52.40;;;;;;5055364;28;20727;-66
2022/02/25 00:57:47;;;;;;;1.13;0.95;;;17.00;52.40;;;;;;5055166;28;20319;-65
2022/02/25 01:00:14;;;;;;;1.50;0.80;;;17.00;52.40;;;;;;5054193;28;20211;-67
2022/02/25 01:02:40;;;;;;;1.50;0.82;;;17.00;52.50;;;;;;5055099;28;20610;-66
2022/02/25 01:05:06;;;;;;;1.75;0.70;;;17.00;52.50;;;;;;5054947;28;20316;-66
2022/02/25 01:07:31;;;;;;;1.05;0.85;;;17.00;52.40;;;;;;5054719;28;20711;-65
2022/02/25 01:09:57;;;;;;;0.90;0.90;;;17.00;52.40;;;;;;5054609;28;20207;-64
2022/02/25 01:12:22;;;;;;;1.27;0.80;;;17.00;52.40;;;;;;5054514;28;20183;-65
2022/02/25 01:14:48;;;;;;;1.75;0.70;;;17.00;52.30;;;;;;5055043;28;20210;-65
2022/02/25 01:17:13;;;;;;;1.38;1.00;;;16.90;52.30;;;;;;5054477;28;20221;-66
2022/02/25 01:19:39;;;;;;;1.23;0.68;;;16.90;52.30;;;;;;5054097;28;20603;-67
2022/02/25 01:22:04;;;;;;;1.10;0.95;;;16.90;52.30;;;;;;5054527;28;20183;-66
2022/02/25 01:24:30;;;;;;;2.42;0.95;;;16.90;52.20;;;;;;5054943;28;20175;-65
2022/02/25 01:26:55;;;;;;;1.23;0.75;;;16.90;52.30;;;;;;5053703;28;20171;-64
2022/02/25 01:29:21;;;;;;;2.38;1.10;;;16.90;52.20;;;;;;5054609;28;20174;-64
2022/02/25 01:31:46;;;;;;;1.15;0.52;;;16.90;52.30;;;;;;5054693;28;20579;-65
2022/02/25 01:34:12;;;;;;;1.13;0.77;;;16.90;52.20;;;;;;5053763;28;20727;-66
2022/02/25 01:36:38;;;;;;;1.38;0.85;;;16.90;52.20;;;;;;5054502;28;20670;-67
2022/02/25 01:39:04;;;;;;;1.48;1.00;;;16.80;52.10;;;;;;5054503;28;20270;-66
2022/02/25 01:41:30;;;;;;;2.40;1.00;;;16.80;52.80;;;;;;5053771;28;20642;-66
2022/02/25 01:44:21;;;;;;;1.30;0.85;;;16.80;52.10;;;;;;5054137;28;20178;-65
2022/02/25 01:46:51;;;;;;;2.35;0.77;;;16.80;52.10;;;;;;5054647;28;20175;-65
2022/02/25 01:49:17;;;;;;;3.15;0.80;;;16.80;52.00;;;;;;5053483;28;20389;-65
2022/02/25 01:51:42;;;;;;;2.40;1.10;;;16.80;52.00;;;;;;5054404;28;20191;-64
2022/02/25 01:54:08;;;;;;;0.80;0.80;;;16.80;52.00;;;;;;5036199;28;20171;-64
2022/02/25 01:56:37;;;;;;;2.85;1.08;;;16.80;52.00;;;;;;5035435;28;20294;-66
2022/02/25 01:59:03;;;;;;;1.83;0.90;;;16.80;52.00;;;;;;5053574;28;20227;-65
2022/02/25 02:01:28;;;;;;;1.45;0.90;;;16.70;52.20;;;;;;5053579;28;20221;-67
2022/02/25 02:03:57;;;;;;;3.75;0.77;;;16.70;52.10;;;;;;5053743;28;20225;-66
2022/02/25 02:06:22;;;;;;;1.33;0.90;;;16.70;52.00;;;;;;5053486;28;20638;-66
2022/02/25 02:08:48;;;;;;;1.30;0.90;;;16.70;52.00;;;;;;5053501;28;20267;-64
2022/02/25 02:11:35;;;;;;;2.47;1.25;;;16.70;52.20;;;;;;5053868;28;20198;-65
2022/02/25 02:14:02;;;;;;;1.70;0.90;;;16.70;52.10;;;;;;5053849;28;20201;-67
2022/02/25 02:16:27;;;;;;;1.95;1.05;;;16.70;52.00;;;;;;5053270;28;20297;-67
2022/02/25 02:18:53;;;;;;;1.77;0.93;;;16.70;52.00;;;;;;5054041;28;20267;-67
2022/02/25 02:21:21;;;;;;;1.20;1.10;;;16.60;51.90;;;;;;5054254;28;20615;-65
2022/02/25 02:23:47;;;;;;;2.15;1.30;;;16.70;52.00;;;;;;5018606;28;20189;-65
2022/02/25 02:26:12;;;;;;;2.45;0.90;;;16.70;52.10;;;;;;5053181;28;20179;-65
2022/02/25 02:28:38;;;;;;;2.72;1.40;;;16.70;52.00;;;;;;5053659;28;20649;-64
2022/02/25 02:31:03;;;;;;;1.55;1.23;;;16.60;52.60;;;;;;5052553;28;20634;-65
2022/02/25 02:33:29;;;;;;;1.63;1.00;;;16.60;51.90;;;;;;5053605;28;20230;-67
2022/02/25 02:35:54;;;;;;;1.05;1.00;;;16.60;51.80;;;;;;5053121;28;20641;-66
2022/02/25 02:38:20;;;;;;;2.42;1.25;;;16.60;51.90;;;;;;5052552;28;20609;-67
2022/02/25 02:40:46;;;;;;;1.35;1.00;;;16.60;51.90;;;;;;5053316;28;20179;-66
2022/02/25 02:43:12;;;;;;;2.70;1.15;;;16.60;51.80;;;;;;5053056;28;20199;-66
2022/02/25 02:45:38;;;;;;;1.75;1.23;;;16.60;51.80;;;;;;5052760;28;20176;-66
2022/02/25 02:48:04;;;;;;;1.65;0.80;;;16.60;51.90;;;;;;5053113;28;20182;-65
2022/02/25 02:50:30;;;;;;;1.98;1.10;;;16.60;51.80;;;;;;5053186;28;20175;-66
2022/02/25 02:52:55;;;;;;;1.17;0.90;;;16.60;51.80;;;;;;5052112;28;20179;-64
2022/02/25 02:55:22;;;;;;;3.80;1.23;;;16.60;51.90;;;;;;5053247;28;20577;-65
2022/02/25 02:57:47;;;;;;;2.25;1.30;;;16.50;51.80;;;;;;5054255;28;20284;-66
2022/02/25 03:00:13;;;;;;;2.70;1.45;;;16.50;51.80;;;;;;5035117;28;20282;-66
2022/02/25 03:02:39;;;;;;;1.52;1.08;;;16.50;51.80;;;;;;5052987;28;20183;-68
2022/02/25 03:05:05;;;;;;;1.95;1.50;;;16.50;51.80;;;;;;5051972;28;20174;-66
2022/02/25 03:07:30;;;;;;;1.83;1.13;;;16.50;51.90;;;;;;5052701;28;20175;-67
2022/02/25 03:09:55;;;;;;;2.42;1.15;;;16.50;51.70;;;;;;5052274;28;20539;-65
2022/02/25 03:12:21;;;;;;;1.45;1.00;;;16.50;51.80;;;;;;5052071;28;20171;-65
2022/02/25 03:14:46;;;;;;;2.60;1.10;;;16.50;51.80;;;;;;5053161;28;20237;-65
2022/02/25 03:17:14;;;;;;;1.73;1.02;;;16.50;51.80;;;;;;5052094;28;20246;-67
2022/02/25 03:19:40;;;;;;;1.92;1.00;;;16.50;51.80;;;;;;5051890;28;20185;-66
2022/02/25 03:22:06;;;;;;;2.60;1.40;;;16.50;51.70;;;;;;5052209;28;20217;-66
2022/02/25 03:24:31;;;;;;;3.70;1.30;;;16.40;51.70;;;;;;5052599;28;20175;-66
2022/02/25 03:26:57;;;;;;;1.35;0.75;;;16.40;51.70;;;;;;5051435;28;20189;-64
2022/02/25 03:29:22;;;;;;;1.50;1.20;;;16.40;51.80;;;;;;5052811;28;20167;-64
2022/02/25 03:31:48;;;;;;;3.17;1.42;;;16.40;51.70;;;;;;5052407;28;20241;-66
2022/02/25 03:34:13;;;;;;;1.75;1.10;;;16.40;51.70;;;;;;5051246;28;20595;-67
2022/02/25 03:36:42;;;;;;;2.80;1.10;;;16.40;51.70;;;;;;5052262;28;20697;-68
2022/02/25 03:39:07;;;;;;;1.63;1.10;;;16.40;51.70;;;;;;5051950;28;20177;-67
2022/02/25 03:41:32;;;;;;;4.05;1.65;;;16.40;51.80;;;;;;5051794;28;20257;-68
2022/02/25 03:43:58;;;;;;;1.30;1.20;;;16.40;51.80;;;;;;5051840;28;20173;-67
2022/02/25 03:46:24;;;;;;;2.25;1.35;;;16.30;51.70;;;;;;5051877;28;20179;-67
2022/02/25 03:48:50;;;;;;;2.75;1.45;;;16.40;51.70;;;;;;5051451;28;20171;-65
2022/02/25 03:51:16;;;;;;;3.67;1.50;;;16.30;51.60;;;;;;5051926;28;20186;-66
2022/02/25 03:53:42;;;;;;;1.48;1.27;;;16.30;51.50;;;;;;5052532;28;20717;-65
2022/02/25 03:56:07;;;;;;;1.92;1.02;;;16.30;51.60;;;;;;5051183;28;20293;-66
2022/02/25 03:58:33;;;;;;;1.65;1.25;;;16.30;51.60;;;;;;5051807;28;20229;-67
2022/02/25 04:00:58;;;;;;;2.65;1.20;;;16.30;51.50;;;;;;5051070;28;20167;-67
2022/02/25 04:03:25;;;;;;;1.52;1.10;;;16.30;51.60;;;;;;5052152;28;20199;-67
2022/02/25 04:05:50;;;;;;;1.75;1.02;;;16.30;51.70;;;;;;5051818;28;20169;-66
2022/02/25 04:08:16;;;;;;;1.70;1.05;;;16.30;51.60;;;;;;5050920;28;20198;-66
2022/02/25 04:10:41;;;;;;;2.55;1.10;;;16.20;51.40;;;;;;5052381;28;20330;-65
2022/02/25 04:13:07;;;;;;;2.22;1.23;;;16.20;51.60;;;;;;5051577;28;20282;-65
2022/02/25 04:15:33;;;;;;;3.63;1.25;;;16.20;51.60;;;;;;5051081;28;20264;-66
2022/02/25 04:17:59;;;;;;;3.38;1.10;;;16.30;51.60;;;;;;5033800;28;20178;-67
2022/02/25 04:20:25;;;;;;;2.67;1.23;;;16.30;51.60;;;;;;5051752;28;20179;-67
2022/02/25 04:22:51;;;;;;;2.47;1.30;;;16.20;51.60;;;;;;5051078;28;20691;-66
2022/02/25 04:25:17;;;;;;;2.35;1.67;;;16.20;51.60;;;;;;5051578;28;20254;-65
2022/02/25 04:27:42;;;;;;;2.70;1.10;;;16.20;51.50;;;;;;5052296;28;20178;-66
2022/02/25 04:30:08;;;;;;;1.40;1.00;;;16.20;51.50;;;;;;5054975;28;20216;-64
2022/02/25 04:32:34;;;;;;;3.13;1.20;;;16.20;51.50;;;;;;5055809;28;20175;-67
2022/02/25 04:34:59;;;;;;;3.72;1.35;;;16.20;51.50;;;;;;5055529;28;20171;-67
2022/02/25 04:37:25;;;;;;;2.75;1.48;;;16.20;51.50;;;;;;5055201;28;20307;-71
2022/02/25 04:39:50;;;;;;;2.65;1.20;;;16.20;51.50;;;;;;5055739;28;20178;-69
2022/02/25 04:42:16;;;;;;;2.30;1.30;;;16.20;51.50;;;;;;5055573;28;20649;-68
2022/02/25 04:44:44;;;;;;;3.25;1.50;;;16.10;51.50;;;;;;5054907;28;20174;-68
2022/02/25 04:47:09;;;;;;;1.25;1.15;;;16.10;51.50;;;;;;5055338;28;20167;-66
2022/02/25 04:49:35;;;;;;;2.88;1.42;;;16.10;51.50;;;;;;5055525;28;20180;-67
2022/02/25 04:52:00;;;;;;;1.95;1.30;;;16.10;51.50;;;;;;5054413;28;20186;-66
2022/02/25 04:54:26;;;;;;;1.77;1.30;;;16.10;51.50;;;;;;5055494;28;20206;-67
2022/02/25 04:56:51;;;;;;;3.03;1.35;;;16.10;51.50;;;;;;5055318;28;20309;-66
2022/02/25 04:59:17;;;;;;;3.00;1.55;;;16.10;51.50;;;;;;5054145;28;20219;-68
2022/02/25 05:01:43;;;;;;;1.42;1.30;;;16.10;51.50;;;;;;5055034;28;20190;-68
2022/02/25 05:04:09;;;;;;;3.78;1.48;;;16.10;51.50;;;;;;5054784;28;20174;-67
2022/02/25 05:06:34;;;;;;;2.05;1.35;;;16.10;51.50;;;;;;5054613;28;20175;-68
2022/02/25 05:09:00;;;;;;;3.05;1.45;;;16.10;51.50;;;;;;5054820;28;20175;-65
2022/02/25 05:11:26;;;;;;;1.90;1.30;;;16.10;51.50;;;;;;5054508;28;20178;-67
2022/02/25 05:13:51;;;;;;;4.18;1.27;;;16.00;51.20;;;;;;5055090;28;20172;-67
2022/02/25 05:21:45;;;;;;;2.30;1.40;;;16.00;51.40;;;;;;5054933;28;20182;-66
2022/02/25 05:24:10;;;;;;;1.90;1.30;;;16.00;51.50;;;;;;5054717;28;20171;-67
2022/02/25 05:26:36;;;;;;;1.75;1.40;;;16.00;51.40;;;;;;5054421;28;20198;-65
2022/02/25 05:29:01;;;;;;;1.50;1.40;;;16.00;51.50;;;;;;5054437;28;20292;-64
2022/02/25 05:31:27;;;;;;;2.70;1.33;;;16.00;51.50;;;;;;5054656;28;20285;-66
2022/02/25 05:33:53;;;;;;;3.88;1.55;;;16.00;51.60;;;;;;5053708;28;20270;-67
2022/02/25 05:36:19;;;;;;;2.67;1.50;;;16.00;51.60;;;;;;5054832;28;20215;-68
2022/02/25 05:38:48;;;;;;;3.35;1.48;;;15.90;51.40;;;;;;5054449;28;20171;-68
2022/02/25 05:41:14;;;;;;;2.78;1.33;;;15.90;51.40;;;;;;5052563;28;20634;-68
2022/02/25 05:43:40;;;;;;;1.95;1.10;;;15.90;51.40;;;;;;5054487;28;20179;-67
2022/02/25 05:46:05;;;;;;;3.75;1.30;;;15.90;51.40;;;;;;5053963;28;20325;-67
2022/02/25 05:48:31;;;;;;;5.05;1.55;;;15.90;51.40;;;;;;5053967;28;20167;-67
2022/02/25 05:50:56;;;;;;;1.88;1.33;;;15.90;51.40;;;;;;5054300;28;20178;-66
2022/02/25 05:53:22;;;;;;;2.75;1.33;;;15.90;51.40;;;;;;5054357;28;20650;-65
2022/02/25 05:55:47;;;;;;;3.58;1.30;;;15.90;51.50;;;;;;5053610;28;20206;-66
2022/02/25 05:58:13;;;;;;;3.25;1.70;;;15.90;51.30;;;;;;5053926;28;20223;-67
2022/02/25 06:00:38;;;;;;;4.60;1.40;;;15.90;51.50;;;;;;5053353;28;20313;-66
2022/02/25 06:03:04;;;;;;;2.30;1.40;;;15.90;51.40;;;;;;5054079;28;20177;-68
2022/02/25 06:05:29;;;;;;;1.55;1.40;;;15.90;51.40;;;;;;5054209;28;20175;-68
2022/02/25 06:07:57;;;;;;;1.73;1.23;;;15.90;51.30;;;;;;5053138;28;20274;-66
2022/02/25 06:10:23;;;;;;;2.50;1.45;;;15.80;51.60;;;;;;5054098;28;20171;-66
2022/02/25 06:12:48;;;;;;;3.42;1.67;;;15.80;51.60;;;;;;5053977;28;20217;-65
2022/02/25 06:15:14;;;;;;;3.03;1.20;;;15.80;51.60;;;;;;5052735;28;20202;-67
2022/02/25 06:17:44;;;;;;;3.03;1.52;;;15.80;51.70;;;;;;5053989;28;20203;-68
2022/02/25 06:20:09;;;;;;;3.05;1.35;;;15.80;51.50;;;;;;5053479;28;20642;-67
2022/02/25 06:22:35;;;;;;;2.42;1.40;;;15.80;51.80;;;;;;5053157;28;20178;-67
2022/02/25 06:25:00;;;;;;;2.30;1.20;;;15.80;51.90;;;;;;5053633;28;20195;-64
2022/02/25 06:27:29;;;;;;;4.78;1.40;;;15.80;51.90;;;;;;5053663;28;20592;-66
2022/02/25 06:29:54;;;;;;;1.67;1.25;;;15.80;51.90;;;;;;5052776;28;20207;-65
2022/02/25 06:32:20;;;;;;;2.58;1.60;;;15.80;51.80;;;;;;5053980;28;20171;-68
2022/02/25 06:34:45;;;;;;;1.77;1.30;;;15.80;51.60;;;;;;5053778;28;20179;-66
2022/02/25 06:37:11;;;;;;;3.30;1.73;;;15.80;51.80;;;;;;5052485;28;20294;-67
2022/02/25 06:39:36;;;;;;;3.50;2.13;;;15.70;51.80;;;;;;5053874;28;20199;-68
2022/02/25 06:42:02;;;;;;;1.75;1.20;;;15.70;51.60;;;;;;5053361;28;20293;-68
2022/02/25 06:44:28;;;;;;;2.00;1.45;;;15.70;51.80;;;;;;5053120;28;20215;-68
2022/02/25 06:46:53;;;;;;;2.20;1.40;;;15.70;51.80;;;;;;5053684;28;20264;-67
2022/02/25 06:49:18;;;;;;;2.83;1.40;;;15.70;52.00;;;;;;5053433;28;20227;-66
2022/02/25 06:51:47;;;;;;;1.73;1.33;;;15.70;52.10;;;;;;5052201;28;20552;-65
2022/02/25 06:54:13;;;;;;;3.60;1.77;;;15.80;52.10;;;;;;5052770;28;20186;-65
2022/02/25 06:56:38;;;;;;;3.08;1.70;;;15.80;52.00;;;;;;5053152;28;20203;-66
2022/02/25 06:59:04;;;;;;;2.67;1.67;;;15.80;52.00;;;;;;5051990;28;20215;-66
2022/02/25 07:01:29;;;;;;;2.17;1.40;;;15.90;52.00;;;;;;5053053;28;20233;-68
2022/02/25 07:03:58;;;;;;;2.60;1.20;;;15.80;51.90;;;;;;5052024;28;20553;-67
2022/02/25 07:06:24;;;;;;;3.15;1.42;;;15.90;51.90;;;;;;5053239;28;20260;-67
2022/02/25 07:08:51;;;;;;;2.78;1.70;;;15.90;51.80;;;;;;5052941;28;20733;-64
2022/02/25 07:11:17;;;;;;;3.03;1.40;;;15.90;51.70;;;;;;5052087;28;20283;-64
2022/02/25 07:13:42;;;;;;;2.35;1.50;;;15.90;51.60;;;;;;5052731;28;20210;-65
2022/02/25 07:16:09;;;;;;;3.70;1.40;;;15.90;51.60;;;;;;5052210;28;20242;-63
2022/02/25 07:18:35;;;;;;;4.07;1.42;;;15.90;52.40;;;;;;5051992;28;20182;-64
2022/02/25 07:21:00;;;;;;;2.97;1.38;;;15.90;52.50;;;;;;5052105;28;20194;-66
2022/02/25 07:23:26;;;;;;;3.90;1.30;;;16.00;52.10;;;;;;5052383;28;20175;-67
2022/02/25 07:25:51;;;;;;;4.20;1.35;;;16.10;52.00;;;;;;5051731;28;20185;-64
2022/02/25 07:28:17;;;;;;;3.95;1.50;;;16.20;52.20;;;;;;5051977;28;20537;-65
2022/02/25 07:30:42;;;;;;;3.88;1.70;;;16.30;52.20;;;;;;5052339;28;20171;-67
2022/02/25 07:33:08;;;;;;;2.67;1.45;;;16.40;52.10;;;;;;5051339;28;20659;-66
2022/02/25 07:35:33;;;;;;;5.65;1.38;;;16.50;52.10;;;;;;5052229;28;20179;-67
2022/02/25 07:38:00;;;;;;;2.55;1.30;;;16.70;52.10;;;;;;5052193;28;20187;-66
2022/02/25 07:40:26;;;;;;;4.75;1.77;;;16.90;51.90;;;;;;5051479;28;20175;-67
2022/02/25 07:42:51;;;;;;;4.18;1.55;;;17.10;51.90;;;;;;5052545;28;20273;-64
2022/02/25 07:45:17;;;;;;;3.33;1.67;;;17.40;51.80;;;;;;5052184;28;20217;-64
2022/02/25 07:47:42;;;;;;;5.28;1.80;;;17.50;51.70;;;;;;5051625;28;20237;-64
2022/02/25 07:50:09;;;;;;;3.47;1.70;;;17.60;51.60;;;;;;5051831;28;20168;-67
2022/02/25 07:52:34;;;;;;;4.88;1.30;;;17.70;51.40;;;;;;5052196;28;20185;-65
2022/02/25 07:55:01;;;;;;;3.45;1.50;;;17.90;51.40;;;;;;5050917;28;20175;-65
2022/02/25 07:57:27;;;;;;;4.45;1.80;;;17.90;51.40;;;;;;5052015;28;20305;-64
2022/02/25 07:59:52;;;;;;;5.05;1.70;;;18.00;51.30;;;;;;5051853;28;20214;-65
2022/02/25 08:02:18;;;;;;;3.35;1.50;;;18.00;51.20;;;;;;5050907;28;20180;-65
2022/02/25 08:04:43;;;;;;;4.25;1.38;;;18.10;51.20;;;;;;5051908;28;20175;-65
2022/02/25 08:07:09;;;;;;;2.80;1.52;;;18.10;51.20;;;;;;5051032;28;20209;-65
2022/02/25 08:09:35;;;;;;;1.83;1.40;;;18.20;51.10;;;;;;5051864;28;20657;-65
2022/02/25 08:12:00;;;;;;;2.42;1.40;;;18.20;51.10;;;;;;5051518;28;20194;-64
2022/02/25 08:14:26;;;;;;;2.85;1.70;;;18.30;51.10;;;;;;5051266;28;20175;-64
2022/02/25 08:16:51;;;;;;;2.88;1.30;;;18.40;51.00;;;;;;5051217;28;20296;-64
2022/02/25 08:19:17;;;;;;;3.90;1.63;;;18.40;50.90;;;;;;5051450;28;20630;-64
2022/02/25 08:21:42;;;;;;;4.53;1.60;;;18.50;50.80;;;;;;5051195;28;20183;-64
2022/02/25 08:24:08;;;;;;;4.25;2.05;;;18.50;50.90;;;;;;5051371;28;20198;-65
2022/02/25 08:26:33;;;;;;;4.00;1.55;;;18.50;51.00;;;;;;5051715;28;20229;-63
2022/02/25 08:28:59;;;;;;;5.13;1.60;;;18.60;50.80;;;;;;5050880;28;20175;-65
2022/02/25 08:31:25;;;;;;;4.13;1.50;;;18.60;50.70;;;;;;5051788;28;20192;-65
2022/02/25 08:33:50;;;;;;;1.75;1.42;;;18.60;50.60;;;;;;5051635;28;20545;-65
2022/02/25 08:36:16;;;;;;;2.92;1.48;;;18.60;50.80;;;;;;5050431;28;20673;-65
2022/02/25 08:38:41;;;;;;;3.03;1.30;;;18.70;50.70;;;;;;5051313;28;20208;-65
2022/02/25 08:41:07;;;;;;;2.92;1.50;;;18.70;50.80;;;;;;5051112;28;20175;-65
2022/02/25 08:43:32;;;;;;;3.45;1.33;;;18.70;50.70;;;;;;5050803;28;20575;-64
2022/02/25 08:45:58;;;;;;;2.80;1.15;;;18.80;50.80;;;;;;5051335;28;20179;-65
2022/02/25 08:48:27;;;;;;;2.78;1.42;;;18.70;50.80;;;;;;5051429;28;20163;-65
2022/02/25 08:50:53;;;;;;;2.97;1.65;;;18.80;50.80;;;;;;5050652;28;20225;-66
2022/02/25 08:53:18;;;;;;;3.25;1.60;;;18.80;50.90;;;;;;5051596;28;20649;-65
2022/02/25 08:55:44;;;;;;;3.95;1.80;;;18.80;50.80;;;;;;5051211;28;20304;-65
2022/02/25 08:58:10;;;;;;;2.78;1.60;;;18.90;50.90;;;;;;5050312;28;20310;-65
2022/02/25 09:00:35;;;;;;;2.97;1.35;;;18.80;50.90;;;;;;5051468;28;20290;-65
2022/02/25 09:03:01;;;;;;;1.98;1.30;;;18.80;51.00;;;;;;5051155;28;20191;-65
2022/02/25 09:05:27;;;;;;;3.03;1.60;;;18.80;51.10;;;;;;5050680;28;20278;-65
2022/02/25 09:07:53;;;;;;;3.90;1.70;;;18.70;51.20;;;;;;5050808;28;20638;-65
2022/02/25 09:10:19;;;;;;;2.63;1.42;;;18.70;51.20;;;;;;5051358;28;20317;-65
2022/02/25 09:12:45;;;;;;;4.60;1.50;;;18.70;51.20;;;;;;5050538;28;20550;-65
2022/02/25 09:15:12;;;;;;;2.03;1.15;;;18.70;51.30;;;;;;5053620;28;20179;-65
2022/02/25 09:17:38;;;;;;;4.32;1.50;;;18.70;51.40;;;;;;5053906;28;20563;-65
2022/02/25 09:20:04;;;;;;;4.72;1.65;;;18.60;51.50;;;;;;5053601;28;20179;-65
2022/02/25 09:22:30;;;;;;;2.38;1.08;;;18.60;51.50;;;;;;5054565;28;20175;-65
2022/02/25 09:24:55;;;;;;;3.00;1.40;;;18.50;51.60;;;;;;5053575;28;20527;-65
2022/02/25 09:27:22;;;;;;;2.65;1.30;;;18.50;51.80;;;;;;5054707;28;20274;-65
2022/02/25 09:29:47;;;;;;;2.88;1.35;;;18.40;52.00;;;;;;5054555;28;20212;-65
2022/02/25 09:32:13;;;;;;;3.38;1.23;;;18.40;52.10;;;;;;5053356;28;20561;-66
2022/02/25 09:34:38;;;;;;;1.92;1.25;;;18.40;52.10;;;;;;5054433;28;20494;-65
2022/02/25 09:37:04;;;;;;;2.35;1.40;;;18.30;52.20;;;;;;5054039;28;20349;-65
2022/02/25 09:39:30;;;;;;;4.05;1.58;;;18.30;52.30;;;;;;5053821;28;20171;-65
2022/02/25 09:41:56;;;;;;;3.70;1.17;;;18.20;52.50;;;;;;5054011;28;20179;-65
2022/02/25 09:44:23;;;;;;;2.33;1.30;;;18.10;52.60;;;;;;5054343;28;20188;-65
2022/02/25 09:46:48;;;;;;;3.55;1.30;;;18.00;52.60;;;;;;5053289;28;20562;-64
2022/02/25 09:49:14;;;;;;;4.70;1.60;;;18.00;52.70;;;;;;5053750;28;20168;-65
2022/02/25 09:51:40;;;;;;;3.70;1.30;;;18.00;52.80;;;;;;5053897;28;20175;-65
2022/02/25 09:54:05;;;;;;;2.70;1.73;;;17.90;52.80;;;;;;5052836;28;20189;-65
2022/02/25 09:56:32;;;;;;;2.83;1.60;;;17.90;52.90;;;;;;5053887;28;20210;-64
2022/02/25 09:58:58;;;;;;;2.88;1.65;;;17.90;52.90;;;;;;5053620;28;20231;-64
2022/02/25 10:01:33;;;;;;;2.88;1.55;;;18.00;52.80;;;;;;5053493;28;20270;-64
2022/02/25 10:04:06;;;;;;;3.13;1.50;;;17.90;52.80;;;;;;5053705;28;20220;-65
2022/02/25 10:06:32;;;;;;;1.70;1.20;;;17.90;52.90;;;;;;5020598;28;20657;-64
2022/02/25 10:08:57;;;;;;;2.78;1.02;;;17.80;52.90;;;;;;5052919;28;20187;-64
2022/02/25 10:11:23;;;;;;;4.38;1.27;;;17.80;52.90;;;;;;5035927;28;20175;-64
2022/02/25 10:13:48;;;;;;;2.58;1.20;;;17.80;53.00;;;;;;5053233;28;20173;-65
2022/02/25 10:16:14;;;;;;;4.15;1.70;;;17.80;53.00;;;;;;5053290;28;20213;-64
2022/02/25 10:18:40;;;;;;;3.95;1.65;;;17.80;53.00;;;;;;5053631;28;20583;-64
2022/02/25 10:21:07;;;;;;;2.88;1.27;;;17.80;53.00;;;;;;5052604;28;20755;-64
2022/02/25 10:23:37;;;;;;;2.33;1.52;;;17.80;53.10;;;;;;5053483;28;20179;-64
2022/02/25 10:26:13;;;;;;;2.63;1.50;;;17.80;53.00;;;;;;5052777;28;20175;-65
2022/02/25 10:28:41;;;;;;;3.38;1.30;;;17.80;53.00;;;;;;5052779;28;20182;-64
2022/02/25 10:31:29;;;;;;;2.70;1.40;;;17.90;52.90;;;;;;5053315;28;20270;-64
2022/02/25 10:33:59;;;;;;;2.38;1.40;;;18.00;52.60;;;;;;5053464;28;20202;-64
2022/02/25 10:36:46;;;;;;;2.35;1.23;;;18.00;52.50;;;;;;5052687;28;20412;-64
2022/02/25 10:39:24;;;;;;;2.08;1.35;;;18.00;52.50;;;;;;5053096;28;20186;-64
2022/02/25 10:42:19;;;;;;;3.63;1.80;;;17.90;52.60;;;;;;5053115;28;20211;-63
2022/02/25 10:44:49;;;;;;;2.75;1.50;;;17.90;52.80;;;;;;5053337;28;20193;-63
2022/02/25 10:47:22;;;;;;;3.08;1.45;;;17.90;52.90;;;;;;5052773;28;20233;-64
2022/02/25 10:49:56;;;;;;;3.03;1.63;;;17.90;52.90;;;;;;5052534;28;20262;-64
2022/02/25 10:52:33;;;;;;;2.80;1.17;;;17.90;52.80;;;;;;5052951;28;20608;-64
2022/02/25 10:54:58;;;;;;;3.83;1.40;;;18.00;52.60;;;;;;5052794;28;20179;-64
2022/02/25 10:57:25;;;;;;;2.97;1.30;;;18.10;52.60;;;;;;5052193;28;20257;-63
2022/02/25 10:59:50;;;;;;;2.20;1.40;;;18.00;52.60;;;;;;5053063;28;20184;-63
2022/02/25 11:02:29;;;;;;;3.40;0.98;;;18.00;52.70;;;;;;5052639;28;20175;-64
2022/02/25 11:05:08;;;;;;;1.33;1.02;;;17.90;52.80;;;;;;5051859;28;20592;-63
2022/02/25 11:07:38;;;;;;;3.47;1.48;;;17.80;52.90;;;;;;5053231;28;20183;-63
2022/02/25 11:10:05;;;;;;;1.70;1.23;;;17.70;52.90;;;;;;5051925;28;20308;-63
2022/02/25 11:12:30;;;;;;;3.53;1.30;;;17.70;53.00;;;;;;5053030;28;20261;-63
2022/02/25 11:14:56;;;;;;;3.00;1.27;;;17.70;53.00;;;;;;5052477;28;20298;-63
2022/02/25 11:17:24;;;;;;;3.28;1.50;;;17.70;53.00;;;;;;5051920;28;21055;-62
2022/02/25 11:19:50;;;;;;;2.55;1.30;;;17.70;53.00;;;;;;5052790;28;20321;-62
2022/02/25 11:22:18;;;;;;;1.73;1.15;;;17.70;52.90;;;;;;5052259;28;20601;-62
2022/02/25 11:24:43;;;;;;;3.25;1.30;;;17.90;53.00;;;;;;5052068;28;20183;-63
2022/02/25 11:27:12;;;;;;;2.95;1.17;;;17.90;52.80;;;;;;5052007;28;20239;-63
2022/02/25 11:29:40;;;;;;;2.13;1.33;;;18.00;52.80;;;;;;5052262;28;20222;-63
2022/02/25 11:32:06;;;;;;;2.97;1.27;;;18.00;52.70;;;;;;5033554;28;20178;-64
2022/02/25 11:34:32;;;;;;;2.85;1.33;;;18.00;52.60;;;;;;5034385;28;20175;-67
2022/02/25 11:36:57;;;;;;;2.03;1.08;;;18.00;52.60;;;;;;5051616;28;20260;-67
2022/02/25 11:39:25;;;;;;;2.55;1.50;;;18.10;52.50;;;;;;5051129;28;20171;-67
2022/02/25 11:41:52;;;;;;;2.72;1.20;;;18.10;52.60;;;;;;5052073;28;20579;-64
2022/02/25 11:44:18;;;;;;;2.70;1.35;;;18.20;52.60;;;;;;5052078;28;20293;-68
2022/02/25 11:46:44;;;;;;;1.58;1.10;;;18.20;52.60;;;;;;5051626;28;20633;-66
2022/02/25 11:49:12;;;;;;;2.85;1.23;;;18.20;53.00;;;;;;5051822;28;20630;-67
2022/02/25 11:51:42;;;;;;;3.45;1.30;;;18.20;52.80;;;;;;5051917;28;20657;-66
2022/02/25 11:54:34;;;;;;;4.32;1.27;;;18.20;52.90;;;;;;5050935;28;20179;-67
2022/02/25 11:56:59;;;;;;;3.88;1.50;;;18.30;52.90;;;;;;5051408;28;20219;-65
2022/02/25 12:00:11;;;;;;;3.75;1.30;;;18.30;52.80;;;;;;5050959;28;20694;-64
2022/02/25 12:02:37;;;;;;;3.08;1.08;;;18.30;53.10;;;;;;5051589;28;20545;-64
2022/02/25 12:05:05;;;;;;;3.67;1.50;;;18.20;53.20;;;;;;5033734;28;20171;-64
2022/02/25 12:07:32;;;;;;;2.65;0.98;;;18.20;53.30;;;;;;5051314;28;20175;-64
2022/02/25 12:10:28;;;;;;;3.63;1.45;;;18.20;53.20;;;;;;5051521;28;20175;-66
2022/02/25 12:13:00;;;;;;;3.70;1.35;;;18.20;53.20;;;;;;5034204;28;20186;-63
2022/02/25 12:15:33;;;;;;;5.78;1.40;;;18.20;53.20;;;;;;5050753;28;20270;-64
2022/02/25 12:18:05;;;;;;;4.50;1.42;;;18.20;53.20;;;;;;5051471;28;20194;-64
2022/02/25 12:20:33;;;;;;;4.75;1.67;;;18.30;53.00;;;;;;5050946;28;20178;-65
2022/02/25 12:23:06;;;;;;;5.55;1.42;;;18.40;52.90;;;;;;5051088;28;20259;-65
2022/02/25 12:25:38;;;;;;;2.28;0.90;;;18.40;52.80;;;;;;5051469;28;20183;-64
2022/02/25 12:28:27;;;;;;;3.03;1.05;;;18.40;52.80;;;;;;5050226;28;20211;-66
2022/02/25 12:31:09;;;;;;;3.67;1.00;;;18.50;52.90;;;;;;5035601;28;20183;-67
2022/02/25 12:33:44;;;;;;;2.50;1.30;;;18.50;52.90;;;;;;5051572;28;20186;-67
2022/02/25 12:36:13;;;;;;;3.70;1.50;;;18.60;52.80;;;;;;5050198;28;20210;-67
2022/02/25 12:38:40;;;;;;;4.82;1.75;;;18.60;52.70;;;;;;5051453;28;20179;-65
2022/02/25 12:41:20;;;;;;;4.20;1.77;;;18.60;52.80;;;;;;5051166;28;20179;-68
2022/02/25 12:43:55;;;;;;;4.15;1.33;;;18.60;52.70;;;;;;5050892;28;20209;-68
2022/02/25 12:46:22;;;;;;;4.40;1.10;;;18.70;52.70;;;;;;5051382;28;20174;-69
2022/02/25 12:48:50;;;;;;;2.55;1.08;;;18.70;52.60;;;;;;5051191;28;20701;-68
2022/02/25 12:51:16;;;;;;;2.63;1.33;;;18.70;52.70;;;;;;5055021;28;20657;-71
2022/02/25 12:53:52;;;;;;;4.68;1.40;;;18.70;52.70;;;;;;5055553;28;20207;-69